createdAt,value
2017-11-28T00:01:16.171Z,85.89
2017-11-28T00:03:43.547Z,85.76
2017-11-28T00:06:10.928Z,84.50
2017-11-28T00:08:38.311Z,84.50
2017-11-28T00:11:05.705Z,84.02
2017-11-28T00:13:33.072Z,84.35
2017-11-28T00:16:00.456Z,83.96
2017-11-28T00:18:27.831Z,83.70
2017-11-28T00:20:55.218Z,83.53
2017-11-28T00:23:22.598Z,83.41
2017-11-28T00:25:50.004Z,83.07
2017-11-28T00:28:17.453Z,83.49
2017-11-28T00:30:44.820Z,83.04
2017-11-28T00:33:12.207Z,83.01
2017-11-28T00:35:39.701Z,83.08
2017-11-28T00:38:07.124Z,83.32
2017-11-28T00:40:34.500Z,83.33
2017-11-28T00:43:01.936Z,83.48
2017-11-28T00:45:29.394Z,83.53
2017-11-28T00:47:56.784Z,83.77
2017-11-28T00:50:24.162Z,83.87
2017-11-28T00:52:51.659Z,83.88
2017-11-28T00:55:19.039Z,83.90
2017-11-28T00:57:46.463Z,84.12
2017-11-28T01:00:13.851Z,84.17
2017-11-28T01:02:41.240Z,84.46
2017-11-28T01:05:08.611Z,83.95
2017-11-28T01:07:35.997Z,83.97
2017-11-28T01:10:03.448Z,84.09
2017-11-28T01:12:30.820Z,83.98
2017-11-28T01:14:58.202Z,83.85
2017-11-28T01:17:25.588Z,83.90
2017-11-28T01:19:52.978Z,84.13
2017-11-28T01:22:20.360Z,84.58
2017-11-28T01:24:47.744Z,84.12
2017-11-28T01:27:15.238Z,84.08
2017-11-28T01:29:42.676Z,84.06
2017-11-28T01:32:10.072Z,84.31
2017-11-28T01:34:37.495Z,84.81
2017-11-28T01:37:04.880Z,84.70
2017-11-28T01:39:32.271Z,84.70
2017-11-28T01:41:59.647Z,84.32
2017-11-28T01:44:27.114Z,84.02
2017-11-28T01:46:54.501Z,83.85
2017-11-28T01:49:21.877Z,83.77
2017-11-28T01:51:49.267Z,83.61
2017-11-28T01:54:16.663Z,83.11
2017-11-28T01:56:44.093Z,82.60
2017-11-28T01:59:11.480Z,82.69
2017-11-28T02:01:38.905Z,83.74
2017-11-28T02:04:06.287Z,83.83
2017-11-28T02:06:33.712Z,83.87
2017-11-28T02:09:01.098Z,83.96
2017-11-28T02:11:28.523Z,85.08
2017-11-28T02:13:55.904Z,84.75
2017-11-28T02:16:23.300Z,84.51
2017-11-28T02:18:50.672Z,84.72
2017-11-28T02:21:18.123Z,84.85
2017-11-28T02:23:45.515Z,85.26
2017-11-28T02:26:12.887Z,85.42
2017-11-28T02:28:40.289Z,85.92
2017-11-28T02:31:07.667Z,85.93
2017-11-28T02:33:35.043Z,86.28
2017-11-28T02:36:02.439Z,85.99
2017-11-28T02:38:29.807Z,85.88
2017-11-28T02:41:09.255Z,85.88
2017-11-28T02:43:36.640Z,86.10
2017-11-28T02:46:07.040Z,85.82
2017-11-28T02:48:34.415Z,85.87
2017-11-28T02:51:01.809Z,85.58
2017-11-28T02:53:29.206Z,85.81
2017-11-28T02:55:58.300Z,85.18
2017-11-28T02:58:26.352Z,85.23
2017-11-28T03:00:56.295Z,85.51
2017-11-28T03:03:23.684Z,86.34
2017-11-28T03:05:51.058Z,85.98
2017-11-28T03:08:18.468Z,85.90
2017-11-28T03:10:48.511Z,85.80
2017-11-28T03:13:17.216Z,85.51
2017-11-28T03:15:46.965Z,85.42
2017-11-28T03:18:19.047Z,85.41
2017-11-28T03:20:47.361Z,85.04
2017-11-28T03:26:12.264Z,84.60
2017-11-28T03:28:59.287Z,84.47
2017-11-28T03:31:26.680Z,84.77
2017-11-28T03:34:08.995Z,84.68
2017-11-28T03:36:36.452Z,84.97
2017-11-28T03:39:03.839Z,84.98
2017-11-28T03:41:31.244Z,84.93
2017-11-28T03:43:58.615Z,84.42
2017-11-28T03:46:26.774Z,84.72
2017-11-28T03:49:08.940Z,85.32
2017-11-28T03:51:36.324Z,85.50
2017-11-28T03:54:03.700Z,85.51
2017-11-28T03:56:31.085Z,85.44
2017-11-28T03:58:58.524Z,85.22
2017-11-28T04:01:25.929Z,85.59
2017-11-28T04:03:53.300Z,85.37
2017-11-28T04:06:20.777Z,85.26
2017-11-28T04:08:48.163Z,84.95
2017-11-28T04:11:15.543Z,85.16
2017-11-28T04:13:42.936Z,85.45
2017-11-28T04:16:10.328Z,85.32
2017-11-28T04:18:37.753Z,85.21
2017-11-28T04:21:05.212Z,85.27
2017-11-28T04:23:32.659Z,85.23
2017-11-28T04:26:00.128Z,84.70
2017-11-28T04:28:27.526Z,84.31
2017-11-28T04:30:54.899Z,84.77
2017-11-28T04:33:22.279Z,84.88
2017-11-28T04:35:49.747Z,85.37
2017-11-28T04:38:17.212Z,85.86
2017-11-28T04:40:44.580Z,85.58
2017-11-28T04:43:11.981Z,85.08
2017-11-28T04:45:39.352Z,85.53
2017-11-28T04:48:06.728Z,85.14
2017-11-28T04:50:34.111Z,84.72
2017-11-28T04:53:01.502Z,83.98
2017-11-28T04:55:28.884Z,83.53
2017-11-28T04:57:56.276Z,83.65
2017-11-28T05:00:23.666Z,83.46
2017-11-28T05:02:51.035Z,83.43
2017-11-28T05:05:18.428Z,83.11
2017-11-28T05:07:45.810Z,82.85
2017-11-28T05:10:13.195Z,82.76
2017-11-28T05:12:40.576Z,83.32
2017-11-28T05:15:07.964Z,83.20
2017-11-28T05:17:35.351Z,83.18
2017-11-28T05:20:02.748Z,83.17
2017-11-28T05:22:30.118Z,82.89
2017-11-28T05:24:57.495Z,83.14
2017-11-28T05:27:24.907Z,83.48
2017-11-28T05:29:52.305Z,83.20
2017-11-28T05:32:19.681Z,83.05
2017-11-28T05:34:47.083Z,82.92
2017-11-28T05:37:14.463Z,83.23
2017-11-28T05:39:41.852Z,82.96
2017-11-28T05:42:09.235Z,83.43
2017-11-28T05:44:36.679Z,83.62
2017-11-28T05:47:04.076Z,83.41
2017-11-28T05:49:31.473Z,83.17
2017-11-28T05:51:58.858Z,83.67
2017-11-28T05:54:26.243Z,83.78
2017-11-28T05:56:53.636Z,83.86
2017-11-28T05:59:21.064Z,83.75
2017-11-28T06:01:48.452Z,83.34
2017-11-28T06:04:15.828Z,82.99
2017-11-28T06:06:43.222Z,83.03
2017-11-28T06:09:10.609Z,82.95
2017-11-28T06:11:37.983Z,82.58
2017-11-28T06:14:05.363Z,82.04
2017-11-28T06:16:33.294Z,82.16
2017-11-28T06:19:00.686Z,82.13
2017-11-28T06:21:28.069Z,82.04
2017-11-28T06:23:55.456Z,81.96
2017-11-28T06:26:22.847Z,81.87
2017-11-28T06:28:50.222Z,81.87
2017-11-28T06:31:17.605Z,82.01
2017-11-28T06:33:45.012Z,82.04
2017-11-28T06:36:12.456Z,81.83
2017-11-28T06:38:39.849Z,81.63
2017-11-28T06:41:07.240Z,82.33
2017-11-28T06:43:34.631Z,82.46
2017-11-28T06:46:02.004Z,82.34
2017-11-28T06:48:29.391Z,82.20
2017-11-28T06:50:56.779Z,82.24
2017-11-28T06:53:24.163Z,82.35
2017-11-28T06:55:51.556Z,82.08
2017-11-28T06:58:18.945Z,81.63
2017-11-28T07:00:46.367Z,81.75
2017-11-28T07:03:13.803Z,82.34
2017-11-28T07:05:41.184Z,82.20
2017-11-28T07:08:08.567Z,82.91
2017-11-28T07:10:35.977Z,83.13
2017-11-28T07:13:03.372Z,82.73
2017-11-28T07:15:30.751Z,82.41
2017-11-28T07:17:58.136Z,82.56
2017-11-28T07:20:25.511Z,83.01
2017-11-28T07:22:52.895Z,82.66
2017-11-28T07:25:20.287Z,82.46
2017-11-28T07:27:47.680Z,82.65
2017-11-28T07:30:15.056Z,82.57
2017-11-28T07:32:42.479Z,82.39
2017-11-28T07:35:09.903Z,82.31
2017-11-28T07:37:37.292Z,82.46
2017-11-28T07:40:04.675Z,82.24
2017-11-28T07:42:32.070Z,81.97
2017-11-28T07:44:59.449Z,81.96
2017-11-28T07:47:26.843Z,81.71
2017-11-28T07:49:54.207Z,81.87
2017-11-28T07:52:21.595Z,81.94
2017-11-28T07:54:48.984Z,81.48
2017-11-28T07:57:16.368Z,81.73
2017-11-28T07:59:43.739Z,81.65
2017-11-28T08:02:11.135Z,82.05
2017-11-28T08:04:38.510Z,81.91
2017-11-28T08:07:05.928Z,81.46
2017-11-28T08:09:33.324Z,81.60
2017-11-28T08:12:00.712Z,81.71
2017-11-28T08:14:28.095Z,82.53
2017-11-28T08:16:55.484Z,83.23
2017-11-28T08:19:22.868Z,82.81
2017-11-28T08:21:50.260Z,83.27
2017-11-28T08:24:17.663Z,83.42
2017-11-28T08:26:45.052Z,83.65
2017-11-28T08:29:12.443Z,83.45
2017-11-28T08:31:39.834Z,82.47
2017-11-28T08:34:07.221Z,82.89
2017-11-28T08:36:34.607Z,82.81
2017-11-28T08:39:02.008Z,82.70
2017-11-28T08:41:29.368Z,82.25
2017-11-28T08:43:56.752Z,82.34
2017-11-28T08:46:24.127Z,81.71
2017-11-28T08:48:51.516Z,81.95
2017-11-28T08:51:18.892Z,81.48
2017-11-28T08:53:46.293Z,81.29
2017-11-28T08:56:13.684Z,81.15
2017-11-28T08:58:41.074Z,80.16
2017-11-28T09:01:08.461Z,80.87
2017-11-28T09:03:35.848Z,80.41
2017-11-28T09:06:03.231Z,81.09
2017-11-28T09:08:30.620Z,80.74
2017-11-28T09:10:58.001Z,80.86
2017-11-28T09:13:25.395Z,80.51
2017-11-28T09:15:52.772Z,80.24
2017-11-28T09:18:20.158Z,80.11
2017-11-28T09:20:47.541Z,80.14
2017-11-28T09:23:14.931Z,80.16
2017-11-28T09:25:42.307Z,80.31
2017-11-28T09:28:09.691Z,79.93
2017-11-28T09:30:37.071Z,79.83
2017-11-28T09:33:04.455Z,79.84
2017-11-28T09:35:31.917Z,79.93
2017-11-28T09:37:59.304Z,80.29
2017-11-28T09:40:26.686Z,80.51
2017-11-28T09:42:54.093Z,79.83
2017-11-28T09:45:21.479Z,79.50
2017-11-28T09:47:48.905Z,79.27
2017-11-28T09:50:16.284Z,79.93
2017-11-28T09:52:43.677Z,79.89
2017-11-28T09:55:11.072Z,79.65
2017-11-28T09:57:38.448Z,79.72
2017-11-28T10:00:05.839Z,79.15
2017-11-28T10:02:33.229Z,79.34
2017-11-28T10:05:00.660Z,79.67
2017-11-28T10:07:28.123Z,78.94
2017-11-28T10:09:55.517Z,79.58
2017-11-28T10:12:22.900Z,80.36
2017-11-28T10:14:50.294Z,80.37
2017-11-28T10:17:17.760Z,80.46
2017-11-28T10:19:45.143Z,80.63
2017-11-28T10:22:12.524Z,80.78
2017-11-28T10:24:39.918Z,80.47
2017-11-28T10:27:07.291Z,80.29
2017-11-28T10:29:34.685Z,80.74
2017-11-28T10:32:02.072Z,80.48
2017-11-28T10:34:29.527Z,80.17
2017-11-28T10:36:56.903Z,80.07
2017-11-28T10:39:24.300Z,79.26
2017-11-28T10:41:51.691Z,79.04
2017-11-28T10:44:19.065Z,78.85
2017-11-28T10:49:20.360Z,78.83
2017-11-28T10:51:47.735Z,78.52
2017-11-28T10:54:15.112Z,79.06
2017-11-28T10:56:42.508Z,79.56
2017-11-28T10:59:09.929Z,79.83
2017-11-28T11:01:37.399Z,80.41
2017-11-28T11:04:04.776Z,79.84
2017-11-28T11:06:32.182Z,79.32
2017-11-28T11:08:59.593Z,78.93
2017-11-28T11:11:26.971Z,78.97
2017-11-28T11:13:54.427Z,78.81
2017-11-28T11:16:21.872Z,79.11
2017-11-28T11:18:49.251Z,78.79
2017-11-28T11:21:16.627Z,79.09
2017-11-28T11:23:43.998Z,79.57
2017-11-28T11:26:11.507Z,78.85
2017-11-28T11:28:38.944Z,79.92
2017-11-28T11:31:06.328Z,78.96
2017-11-28T11:33:33.758Z,78.46
2017-11-28T11:36:01.232Z,78.12
2017-11-28T11:38:28.607Z,78.07
2017-11-28T11:40:56.016Z,77.90
2017-11-28T11:43:23.394Z,77.71
2017-11-28T11:45:50.776Z,77.69
2017-11-28T11:48:18.156Z,77.86
2017-11-28T11:50:45.544Z,77.43
2017-11-28T11:53:12.923Z,77.42
2017-11-28T11:55:40.314Z,77.37
2017-11-28T11:58:07.697Z,77.48
2017-11-28T12:00:35.075Z,77.15
2017-11-28T12:03:02.464Z,77.23
2017-11-28T12:05:29.864Z,77.24
2017-11-28T12:07:57.315Z,77.64
2017-11-28T12:10:24.780Z,77.20
2017-11-28T12:12:52.235Z,76.90
2017-11-28T12:15:19.628Z,77.37
2017-11-28T12:17:47.039Z,77.44
2017-11-28T12:20:14.499Z,76.79
2017-11-28T12:22:41.964Z,76.46
2017-11-28T12:25:09.348Z,77.58
2017-11-28T12:27:36.727Z,77.95
2017-11-28T12:30:04.123Z,78.02
2017-11-28T12:32:32.399Z,78.15
2017-11-28T12:34:59.783Z,78.24
2017-11-28T12:37:27.211Z,77.90
2017-11-28T12:39:54.595Z,77.55
2017-11-28T12:42:21.971Z,77.09
2017-11-28T12:44:49.355Z,77.32
2017-11-28T12:47:16.722Z,77.51
2017-11-28T12:49:44.103Z,77.10
2017-11-28T12:52:11.519Z,77.37
2017-11-28T12:54:38.991Z,77.18
2017-11-28T12:57:06.367Z,76.91
2017-11-28T12:59:33.803Z,77.12
2017-11-28T13:02:01.260Z,76.88
2017-11-28T13:04:28.660Z,76.51
2017-11-28T13:06:56.062Z,76.68
2017-11-28T13:09:23.533Z,76.77
2017-11-28T13:11:50.983Z,76.94
2017-11-28T13:14:18.447Z,76.20
2017-11-28T13:16:45.892Z,76.11
2017-11-28T13:19:13.279Z,76.47
2017-11-28T13:21:40.658Z,76.29
2017-11-28T13:24:08.040Z,76.26
2017-11-28T13:26:35.415Z,76.20
2017-11-28T13:29:02.810Z,75.88
2017-11-28T13:31:30.204Z,76.24
2017-11-28T13:33:57.589Z,75.82
2017-11-28T13:36:24.955Z,76.45
2017-11-28T13:38:52.392Z,75.46
2017-11-28T13:41:19.779Z,74.75
2017-11-28T13:43:47.159Z,74.71
2017-11-28T13:46:14.544Z,74.87
2017-11-28T13:48:41.933Z,74.99
2017-11-28T13:51:09.366Z,75.37
2017-11-28T13:53:36.754Z,75.60
2017-11-28T13:56:04.128Z,75.20
2017-11-28T13:58:31.529Z,75.59
2017-11-28T14:00:58.907Z,75.62
2017-11-28T14:03:26.292Z,75.06
2017-11-28T14:05:53.684Z,75.73
2017-11-28T14:08:21.074Z,75.22
2017-11-28T14:10:48.450Z,75.28
2017-11-28T14:13:15.832Z,75.41
2017-11-28T14:15:43.216Z,75.71
2017-11-28T14:18:10.606Z,75.10
2017-11-28T14:20:38.235Z,75.03
2017-11-28T14:23:11.350Z,74.87
2017-11-28T14:25:40.992Z,75.48
2017-11-28T14:28:12.905Z,75.43
2017-11-28T14:30:42.730Z,75.96
2017-11-28T14:33:14.060Z,76.04
2017-11-28T14:35:44.788Z,75.63
2017-11-28T14:38:12.220Z,75.90
2017-11-28T14:40:39.564Z,76.06
2017-11-28T14:43:11.261Z,75.68
2017-11-28T14:45:40.981Z,75.87
2017-11-28T14:48:08.355Z,75.57
2017-11-28T14:50:41.251Z,75.14
2017-11-28T14:53:08.625Z,74.59
2017-11-28T14:55:41.491Z,74.96
2017-11-28T14:58:25.443Z,74.97
2017-11-28T15:04:19.293Z,75.21
2017-11-28T15:07:02.448Z,75.05
2017-11-28T15:09:35.375Z,75.14
2017-11-28T15:12:19.549Z,75.10
2017-11-28T15:17:54.537Z,74.95
2017-11-28T15:20:27.607Z,74.96
2017-11-28T15:22:54.981Z,74.81
2017-11-28T15:25:22.376Z,75.03
2017-11-28T15:27:49.748Z,74.72
2017-11-28T15:30:17.128Z,74.62
2017-11-28T15:32:44.505Z,74.63
2017-11-28T15:35:11.960Z,74.56
2017-11-28T15:37:39.347Z,74.75
2017-11-28T15:40:06.724Z,74.43
2017-11-28T15:42:34.108Z,73.93
2017-11-28T15:45:01.587Z,73.96
2017-11-28T15:47:28.984Z,74.27
2017-11-28T15:49:56.360Z,74.35
2017-11-28T15:52:23.740Z,74.32
2017-11-28T15:54:51.116Z,74.47
2017-11-28T15:57:18.508Z,74.91
2017-11-28T15:59:45.890Z,74.57
2017-11-28T16:02:13.284Z,74.72
2017-11-28T16:04:40.682Z,74.98
2017-11-28T16:07:08.071Z,75.63
2017-11-28T16:09:35.553Z,75.54
2017-11-28T16:12:02.935Z,75.13
2017-11-28T16:14:30.311Z,75.08
2017-11-28T16:16:57.730Z,75.02
2017-11-28T16:19:25.096Z,75.38
2017-11-28T16:21:52.478Z,75.30
2017-11-28T16:24:19.956Z,75.36
2017-11-28T16:26:47.350Z,75.67
2017-11-28T16:29:14.730Z,75.93
2017-11-28T16:31:42.099Z,75.75
2017-11-28T16:34:09.584Z,76.07
2017-11-28T16:36:36.960Z,76.70
2017-11-28T16:39:04.347Z,75.86
2017-11-28T16:41:31.731Z,76.13
2017-11-28T16:43:59.121Z,76.56
2017-11-28T16:46:26.495Z,76.57
2017-11-28T16:48:53.911Z,76.87
2017-11-28T16:51:21.292Z,77.48
2017-11-28T16:53:48.673Z,77.48
2017-11-28T16:56:16.055Z,78.00
2017-11-28T16:58:43.436Z,77.44
2017-11-28T17:01:10.855Z,77.90
2017-11-28T17:03:38.240Z,77.91
2017-11-28T17:06:05.625Z,77.97
2017-11-28T17:08:33.014Z,78.04
2017-11-28T17:11:00.392Z,78.51
2017-11-28T17:13:27.782Z,78.99
2017-11-28T17:15:55.156Z,78.78
2017-11-28T17:18:22.561Z,78.38
2017-11-28T17:20:49.990Z,78.16
2017-11-28T17:23:17.435Z,78.07
2017-11-28T17:25:44.832Z,78.30
2017-11-28T17:28:12.251Z,79.12
2017-11-28T17:30:39.636Z,78.66
2017-11-28T17:33:07.056Z,78.52
2017-11-28T17:35:34.436Z,78.43
2017-11-28T17:38:01.819Z,78.71
2017-11-28T17:40:29.203Z,78.81
2017-11-28T17:42:56.679Z,78.50
2017-11-28T17:45:24.079Z,78.28
2017-11-28T17:47:51.447Z,79.02
2017-11-28T17:50:18.860Z,78.58
2017-11-28T17:52:46.222Z,78.73
2017-11-28T17:55:13.644Z,78.83
2017-11-28T17:57:40.996Z,80.69
2017-11-28T18:00:08.389Z,79.97
2017-11-28T18:02:35.822Z,79.72
2017-11-28T18:05:03.195Z,79.57
2017-11-28T18:07:30.584Z,79.27
2017-11-28T18:09:57.956Z,79.20
2017-11-28T18:12:25.350Z,78.87
2017-11-28T18:14:52.739Z,78.41
2017-11-28T18:17:20.159Z,78.49
2017-11-28T18:19:47.552Z,78.03
2017-11-28T18:22:14.940Z,78.45
2017-11-28T18:24:42.364Z,78.40
2017-11-28T18:27:09.753Z,78.53
2017-11-28T18:29:37.228Z,79.14
2017-11-28T18:32:04.612Z,78.81
2017-11-28T18:34:31.992Z,78.87
2017-11-28T18:36:59.375Z,79.10
2017-11-28T18:39:26.756Z,79.39
2017-11-28T18:41:54.143Z,79.50
2017-11-28T18:44:21.531Z,79.53
2017-11-28T18:46:48.916Z,79.98
2017-11-28T18:49:16.369Z,80.18
2017-11-28T18:51:43.761Z,79.79
2017-11-28T18:54:11.180Z,80.01
2017-11-28T18:56:38.578Z,80.05
2017-11-28T18:59:05.962Z,80.36
2017-11-28T19:01:33.378Z,80.14
2017-11-28T19:04:00.802Z,80.57
2017-11-28T19:06:28.250Z,80.07
2017-11-28T19:08:55.683Z,80.18
2017-11-28T19:11:23.067Z,80.18
2017-11-28T19:13:50.455Z,79.54
2017-11-28T19:16:17.837Z,79.85
2017-11-28T19:18:45.227Z,79.53
2017-11-28T19:21:12.692Z,80.16
2017-11-28T19:23:40.075Z,80.06
2017-11-28T19:26:07.500Z,80.65
2017-11-28T19:28:34.895Z,80.02
2017-11-28T19:31:02.310Z,80.09
2017-11-28T19:33:29.699Z,80.02
2017-11-28T19:35:57.093Z,79.63
2017-11-28T19:38:24.492Z,79.85
2017-11-28T19:40:51.866Z,79.67
2017-11-28T19:43:19.264Z,79.83
2017-11-28T19:45:46.660Z,80.66
2017-11-28T19:48:14.072Z,80.44
2017-11-28T19:50:41.480Z,80.29
2017-11-28T19:53:08.868Z,80.34
2017-11-28T19:55:36.264Z,80.46
2017-11-28T19:58:03.663Z,80.28
2017-11-28T20:00:31.072Z,80.14
2017-11-28T20:02:58.464Z,80.30
2017-11-28T20:05:25.859Z,80.54
2017-11-28T20:07:53.254Z,80.48
2017-11-28T20:10:20.650Z,79.81
2017-11-28T20:12:48.036Z,79.54
2017-11-28T20:15:15.435Z,78.88
2017-11-28T20:17:42.836Z,79.57
2017-11-28T20:20:10.242Z,79.77
2017-11-28T20:22:37.628Z,79.42
2017-11-28T20:25:05.011Z,79.70
2017-11-28T20:27:32.395Z,80.57
2017-11-28T20:29:59.819Z,80.94
2017-11-28T20:32:27.211Z,81.21
2017-11-28T20:34:54.620Z,81.60
2017-11-28T20:37:22.080Z,81.73
2017-11-28T20:39:49.467Z,81.81
2017-11-28T20:42:16.876Z,81.91
2017-11-28T20:44:44.259Z,82.41
2017-11-28T20:47:11.696Z,82.48
2017-11-28T20:49:39.108Z,82.18
2017-11-28T20:52:06.510Z,82.33
2017-11-28T20:54:33.907Z,82.97
2017-11-28T20:57:01.297Z,83.25
2017-11-28T20:59:28.765Z,82.93
2017-11-28T21:01:56.163Z,81.95
2017-11-28T21:04:23.580Z,81.74
2017-11-28T21:06:51.043Z,81.92
2017-11-28T21:09:18.512Z,81.76
2017-11-28T21:11:45.911Z,82.49
2017-11-28T21:14:13.324Z,82.27
2017-11-28T21:16:40.711Z,82.53
2017-11-28T21:19:08.104Z,82.47
2017-11-28T21:21:35.590Z,82.38
2017-11-28T21:24:02.970Z,82.54
2017-11-28T21:26:30.364Z,81.92
2017-11-28T21:28:57.757Z,81.67
2017-11-28T21:31:25.152Z,81.71
2017-11-28T21:33:52.532Z,82.02
2017-11-28T21:36:19.928Z,81.69
2017-11-28T21:38:47.321Z,81.80
2017-11-28T21:41:14.708Z,82.18
2017-11-28T21:43:42.098Z,82.68
2017-11-28T21:46:09.524Z,82.25
2017-11-28T21:48:36.924Z,82.23
2017-11-28T21:51:04.324Z,82.29
2017-11-28T21:53:31.706Z,82.04
2017-11-28T21:55:59.100Z,81.69
2017-11-28T21:58:26.552Z,82.06
2017-11-28T22:00:54.052Z,82.22
2017-11-28T22:03:21.444Z,82.28
2017-11-28T22:05:48.835Z,82.25
2017-11-28T22:08:16.263Z,82.04
2017-11-28T22:10:43.651Z,82.10
2017-11-28T22:13:11.045Z,82.31
2017-11-28T22:15:38.427Z,82.02
2017-11-28T22:18:05.846Z,82.36
2017-11-28T22:20:33.232Z,82.51
2017-11-28T22:23:00.624Z,82.54
2017-11-28T22:25:28.016Z,83.11
2017-11-28T22:27:55.470Z,82.77
2017-11-28T22:30:22.857Z,82.59
2017-11-28T22:32:50.361Z,82.95
2017-11-28T22:35:17.745Z,83.16
2017-11-28T22:37:45.147Z,82.85
2017-11-28T22:40:12.608Z,82.06
2017-11-28T22:42:40.058Z,82.48
2017-11-28T22:45:07.448Z,82.24
2017-11-28T22:47:34.851Z,82.54
2017-11-28T22:50:02.241Z,82.57
2017-11-28T22:52:29.697Z,82.26
2017-11-28T22:54:57.084Z,82.48
2017-11-28T22:57:24.471Z,82.81
2017-11-28T22:59:51.863Z,83.01
2017-11-28T23:02:19.251Z,82.48
2017-11-28T23:04:46.635Z,82.16
2017-11-28T23:07:14.107Z,82.79
2017-11-28T23:09:41.570Z,82.45
2017-11-28T23:12:09.055Z,83.00
2017-11-28T23:14:46.265Z,82.88
2017-11-28T23:17:13.664Z,82.40
2017-11-28T23:19:41.048Z,82.23
2017-11-28T23:22:08.443Z,82.38
2017-11-28T23:24:35.835Z,82.74
2017-11-28T23:27:03.220Z,83.05
2017-11-28T23:29:30.615Z,83.45
2017-11-28T23:31:58.092Z,82.94
2017-11-28T23:34:25.498Z,83.44
2017-11-28T23:36:52.928Z,82.82
2017-11-28T23:39:20.328Z,82.46
2017-11-28T23:41:47.723Z,82.24
2017-11-28T23:44:15.123Z,82.72
2017-11-28T23:46:42.512Z,81.97
2017-11-28T23:49:09.907Z,82.11
2017-11-28T23:51:37.292Z,81.82
2017-11-28T23:54:04.795Z,81.32
2017-11-28T23:56:32.256Z,81.04
2017-11-28T23:58:59.708Z,81.17
